To NAV CANADA Home Page Login to a new session Search on AWWS site Feedback and Comments Disclaimer Vers la page française équivalente Tips FAQ What's new on the site To the Forecasts and Observations / NOTAM section To "File a Flight Plan" website Publications and other links Update of the User's profile FIC Telephone Numbers My Weather Data Folder Route Weather Data Regional Weather Data Local Weather Data To the Forecasts and Observations / NOTAM section
Request Generated 01/17/2017 at 04:56:00 UTC . Weather information available at that time is displayed.

METAR/TAF

SAINT JOHN/NB    

METAR CYSJ 170400Z 30012G21KT 15SM OVC055 00/M08 A3002 RMK SC8
SLP174=
METAR CYSJ 170300Z 26009G18KT 230V290 15SM BKN067 00/M08 A3003 RMK
AC7 SLP177=
METAR CYSJ 170200Z 26011KT 15SM OVC075 00/M06 A3003 RMK AC8 SLP179=

TAF CYSJ 162338Z 1700/1712 23012G22KT P6SM FEW025 BKN050
BECMG 1702/1704 30010KT
FM170400 30010KT P6SM SCT040
RMK NXT FCST BY 170600Z=
Your time UTC time
Weather data provided by Environment Canada and NAV CANADA